Time;durP1;ratioP1;P1;durP2;ratioP2;P2;SDS_P1;SDS_P2;PMS_P1;PMS_P2;Temp;Humidity;BMP_temperature;BMP_pressure;BME280_temperature;BME280_humidity;BME280_pressure;Samples;Min_cycle;Max_cycle;Signal;HPM_P1;HPM_P2
2023/10/25 00:00:08;;;;;;;3.35;2.00;;;;;;;;;;5083612;28;20047;-75
2023/10/25 00:02:40;;;;;;;2.72;1.73;;;;;;;;;;5083632;28;20055;-76
2023/10/25 00:05:10;;;;;;;4.93;2.30;;;;;;;;;;5082801;28;20410;-77
2023/10/25 00:07:42;;;;;;;3.92;1.83;;;;;;;;;;5082584;28;20052;-75
2023/10/25 00:10:12;;;;;;;5.25;1.95;;;;;;;;;;5082686;28;20052;-73
2023/10/25 00:12:44;;;;;;;4.53;1.83;;;;;;;;;;5083023;28;20040;-73
2023/10/25 00:15:16;;;;;;;4.57;2.22;;;;;;;;;;5083340;28;20059;-74
2023/10/25 00:17:48;;;;;;;2.90;1.90;;;;;;;;;;5082640;28;20055;-73
2023/10/25 00:20:20;;;;;;;3.50;1.80;;;;;;;;;;5082717;28;20043;-77
2023/10/25 00:22:51;;;;;;;3.85;1.80;;;;;;;;;;5082105;28;20414;-76
2023/10/25 00:25:21;;;;;;;3.30;2.03;;;;;;;;;;5080778;28;20521;-76
2023/10/25 00:27:52;;;;;;;4.07;1.80;;;;;;;;;;5082428;28;20067;-73
2023/10/25 00:30:25;;;;;;;1.58;1.17;;;;;;;;;;5083248;28;20402;-72
2023/10/25 00:32:58;;;;;;;3.47;1.58;;;;;;;;;;5083802;28;20048;-76
2023/10/25 00:35:29;;;;;;;3.05;1.63;;;;;;;;;;5080784;28;20052;-75
2023/10/25 00:38:01;;;;;;;3.40;1.50;;;;;;;;;;5081994;28;20067;-76
2023/10/25 00:40:32;;;;;;;4.20;1.77;;;;;;;;;;5082839;28;20047;-72
2023/10/25 00:43:20;;;;;;;2.60;1.70;;;;;;;;;;5082985;28;20060;-75
2023/10/25 00:46:11;;;;;;;3.38;1.60;;;;;;;;;;5080765;28;20056;-74
2023/10/25 00:48:47;;;;;;;6.05;1.67;;;;;;;;;;5082833;28;20059;-75
2023/10/25 00:51:21;;;;;;;5.32;1.70;;;;;;;;;;5081955;28;20047;-76
2023/10/25 00:53:54;;;;;;;2.40;1.40;;;;;;;;;;5080449;28;20059;-74
2023/10/25 00:56:27;;;;;;;3.38;1.60;;;;;;;;;;5082224;28;20044;-73
2023/10/25 00:59:00;;;;;;;7.57;2.28;;;;;;;;;;5082368;28;20044;-72
2023/10/25 01:01:33;;;;;;;6.50;1.40;;;;;;;;;;5082236;28;20040;-72
2023/10/25 01:04:08;;;;;;;3.60;1.48;;;;;;;;;;5066200;28;20048;-73
2023/10/25 01:06:39;;;;;;;5.15;1.90;;;;;;;;;;5060924;28;20052;-72
2023/10/25 01:09:10;;;;;;;7.07;1.63;;;;;;;;;;5059722;28;20056;-73
2023/10/25 01:11:41;;;;;;;6.60;1.63;;;;;;;;;;5060031;28;20052;-72
2023/10/25 01:14:13;;;;;;;6.32;1.08;;;;;;;;;;5060645;28;20052;-73
2023/10/25 01:16:44;;;;;;;6.70;1.30;;;;;;;;;;5060047;28;20053;-74
2023/10/25 01:19:14;;;;;;;5.07;1.23;;;;;;;;;;5062108;28;20514;-73
2023/10/25 01:21:46;;;;;;;6.60;1.20;;;;;;;;;;5061104;28;20057;-74
2023/10/25 01:24:19;;;;;;;4.25;1.10;;;;;;;;;;5062382;28;20048;-75
2023/10/25 01:26:49;;;;;;;7.50;1.45;;;;;;;;;;5061474;28;20056;-74
2023/10/25 01:29:20;;;;;;;7.93;1.30;;;;;;;;;;5060374;28;20053;-73
2023/10/25 01:31:50;;;;;;;4.10;0.93;;;;;;;;;;5059519;28;20423;-74
2023/10/25 01:34:22;;;;;;;4.25;1.00;;;;;;;;;;5062422;28;20061;-72
2023/10/25 01:36:53;;;;;;;6.70;1.02;;;;;;;;;;5062177;28;20415;-73
2023/10/25 01:39:26;;;;;;;7.03;1.33;;;;;;;;;;5061456;28;20506;-73
2023/10/25 01:41:57;;;;;;;5.43;1.40;;;;;;;;;;5059805;28;20048;-73
2023/10/25 01:44:28;;;;;;;4.07;0.98;;;;;;;;;;5059710;28;20059;-73
2023/10/25 01:46:59;;;;;;;4.40;1.02;;;;;;;;;;5061917;28;20067;-74
2023/10/25 01:49:31;;;;;;;7.28;1.55;;;;;;;;;;5061432;28;20411;-73
2023/10/25 01:52:02;;;;;;;6.22;0.88;;;;;;;;;;5062136;28;20593;-73
2023/10/25 01:54:34;;;;;;;4.63;1.20;;;;;;;;;;5059918;28;20056;-72
2023/10/25 01:57:05;;;;;;;12.57;1.15;;;;;;;;;;5061997;28;20055;-73
2023/10/25 01:59:36;;;;;;;6.30;1.02;;;;;;;;;;5060098;28;21157;-72
2023/10/25 02:02:08;;;;;;;4.97;1.02;;;;;;;;;;5059343;28;20052;-74
2023/10/25 02:04:38;;;;;;;10.02;1.45;;;;;;;;;;5064220;28;20205;-73
2023/10/25 02:07:10;;;;;;;4.88;1.10;;;;;;;;;;5065394;28;20053;-73
2023/10/25 02:09:41;;;;;;;5.53;1.00;;;;;;;;;;5065244;28;20048;-72
2023/10/25 02:12:14;;;;;;;7.18;1.58;;;;;;;;;;5065698;28;20495;-73
2023/10/25 02:14:45;;;;;;;7.35;1.42;;;;;;;;;;5063347;28;20052;-73
2023/10/25 02:17:16;;;;;;;7.88;1.15;;;;;;;;;;5064682;28;20052;-72
2023/10/25 02:19:48;;;;;;;7.68;1.42;;;;;;;;;;5062995;28;20059;-74
2023/10/25 02:22:19;;;;;;;6.93;1.52;;;;;;;;;;5065698;28;20048;-74
2023/10/25 02:24:51;;;;;;;6.15;1.23;;;;;;;;;;5065406;28;20055;-73
2023/10/25 02:27:22;;;;;;;10.18;1.25;;;;;;;;;;5065259;28;20049;-73
2023/10/25 02:29:52;;;;;;;8.65;1.38;;;;;;;;;;5064012;28;20520;-73
2023/10/25 02:32:23;;;;;;;6.55;1.50;;;;;;;;;;5065761;28;20036;-73
2023/10/25 02:34:56;;;;;;;8.52;1.23;;;;;;;;;;5063220;28;20055;-74
2023/10/25 02:37:27;;;;;;;8.30;1.30;;;;;;;;;;5065341;28;20049;-73
2023/10/25 02:39:58;;;;;;;3.97;0.75;;;;;;;;;;5064625;28;20052;-73
2023/10/25 02:42:29;;;;;;;6.32;1.45;;;;;;;;;;5062808;28;20056;-73
2023/10/25 02:45:00;;;;;;;8.32;1.38;;;;;;;;;;5064579;28;20041;-73
2023/10/25 02:47:31;;;;;;;7.40;1.45;;;;;;;;;;5064839;28;20495;-74
2023/10/25 02:50:02;;;;;;;8.30;1.27;;;;;;;;;;5046440;28;20446;-73
2023/10/25 02:52:33;;;;;;;7.05;1.42;;;;;;;;;;5062911;28;20056;-73
2023/10/25 02:55:04;;;;;;;4.30;1.00;;;;;;;;;;5065190;28;20052;-73
2023/10/25 02:57:36;;;;;;;6.97;1.35;;;;;;;;;;5063688;28;20060;-74
2023/10/25 03:00:07;;;;;;;4.68;0.90;;;;;;;;;;5064291;28;20048;-74
2023/10/25 03:02:38;;;;;;;5.90;1.20;;;;;;;;;;5064510;28;20399;-73
2023/10/25 03:05:10;;;;;;;7.88;1.30;;;;;;;;;;5062208;28;20052;-74
2023/10/25 03:07:41;;;;;;;5.25;1.15;;;;;;;;;;5064698;28;20049;-73
2023/10/25 03:10:12;;;;;;;10.05;1.27;;;;;;;;;;5064663;28;20048;-73
2023/10/25 03:12:43;;;;;;;10.40;1.60;;;;;;;;;;5062600;28;20056;-74
2023/10/25 03:15:14;;;;;;;8.15;1.00;;;;;;;;;;5063335;28;20083;-74
2023/10/25 03:17:45;;;;;;;6.82;1.15;;;;;;;;;;5063836;28;20059;-72
2023/10/25 03:20:16;;;;;;;6.35;0.90;;;;;;;;;;5062121;28;20529;-73
2023/10/25 03:22:47;;;;;;;5.43;1.10;;;;;;;;;;5062037;28;20530;-73
2023/10/25 03:25:18;;;;;;;7.55;1.52;;;;;;;;;;5064457;28;20040;-74
2023/10/25 03:27:49;;;;;;;4.30;1.10;;;;;;;;;;5063698;28;20067;-73
2023/10/25 03:30:20;;;;;;;4.55;1.40;;;;;;;;;;5063657;28;20041;-72
2023/10/25 03:32:51;;;;;;;3.53;1.20;;;;;;;;;;5063653;28;20052;-73
2023/10/25 03:35:22;;;;;;;4.97;0.93;;;;;;;;;;5064126;28;20052;-73
2023/10/25 03:37:55;;;;;;;6.32;1.30;;;;;;;;;;5061689;28;20052;-73
2023/10/25 03:40:25;;;;;;;8.10;1.55;;;;;;;;;;5062130;28;20075;-73
2023/10/25 03:42:56;;;;;;;5.55;1.27;;;;;;;;;;5063872;28;20479;-74
2023/10/25 03:45:27;;;;;;;9.77;1.45;;;;;;;;;;5064350;28;20562;-74
2023/10/25 03:48:00;;;;;;;6.95;1.20;;;;;;;;;;5061309;28;20060;-73
2023/10/25 03:50:31;;;;;;;4.68;0.95;;;;;;;;;;5063637;28;20048;-73
2023/10/25 03:53:01;;;;;;;4.85;1.20;;;;;;;;;;5062082;28;20044;-74
2023/10/25 03:55:32;;;;;;;5.75;1.42;;;;;;;;;;5062213;28;20060;-74
2023/10/25 03:58:03;;;;;;;6.13;1.00;;;;;;;;;;5063391;28;20857;-73
2023/10/25 04:00:33;;;;;;;5.25;1.10;;;;;;;;;;5063267;28;20052;-73
2023/10/25 04:03:04;;;;;;;3.15;1.20;;;;;;;;;;5063491;28;20057;-74
2023/10/25 04:05:35;;;;;;;3.63;0.60;;;;;;;;;;5063208;28;20407;-74
2023/10/25 04:08:05;;;;;;;3.50;0.90;;;;;;;;;;5062494;28;20452;-73
2023/10/25 04:10:36;;;;;;;7.53;1.25;;;;;;;;;;5063599;28;20407;-73
2023/10/25 04:13:07;;;;;;;5.32;0.85;;;;;;;;;;5062884;28;20044;-73
2023/10/25 04:15:39;;;;;;;6.35;0.90;;;;;;;;;;5063227;28;20522;-73
2023/10/25 04:18:10;;;;;;;6.47;1.10;;;;;;;;;;5062950;28;20048;-73
2023/10/25 04:20:41;;;;;;;7.05;1.10;;;;;;;;;;5062930;28;20053;-74
2023/10/25 04:23:11;;;;;;;4.63;0.80;;;;;;;;;;5061654;28;20052;-73
2023/10/25 04:25:43;;;;;;;7.53;1.10;;;;;;;;;;5063063;28;20067;-74
2023/10/25 04:28:15;;;;;;;5.78;1.00;;;;;;;;;;5062339;28;20049;-73
2023/10/25 04:30:46;;;;;;;2.65;1.02;;;;;;;;;;5062366;28;20044;-73
2023/10/25 04:33:17;;;;;;;7.90;1.40;;;;;;;;;;5060318;28;20064;-74
2023/10/25 04:35:48;;;;;;;3.13;0.82;;;;;;;;;;5063068;28;20047;-72
2023/10/25 04:38:20;;;;;;;6.35;0.80;;;;;;;;;;5062768;28;20522;-73
2023/10/25 04:40:52;;;;;;;4.63;0.88;;;;;;;;;;5062296;28;20048;-74
2023/10/25 04:43:22;;;;;;;2.72;0.95;;;;;;;;;;5062251;28;20051;-73
2023/10/25 04:45:53;;;;;;;2.25;1.02;;;;;;;;;;5062805;28;20052;-73
2023/10/25 04:48:24;;;;;;;7.97;1.23;;;;;;;;;;5062905;28;20055;-73
2023/10/25 04:50:55;;;;;;;4.13;0.98;;;;;;;;;;5062503;28;20048;-73
2023/10/25 04:53:25;;;;;;;5.00;1.13;;;;;;;;;;5062470;28;20036;-72
2023/10/25 04:55:56;;;;;;;4.75;1.13;;;;;;;;;;5062453;28;20071;-73
2023/10/25 04:58:27;;;;;;;7.30;1.20;;;;;;;;;;5062420;28;20522;-73
2023/10/25 05:00:58;;;;;;;5.72;1.27;;;;;;;;;;5062523;28;20051;-73
2023/10/25 05:03:28;;;;;;;3.83;1.10;;;;;;;;;;5063027;28;20495;-72
2023/10/25 05:05:58;;;;;;;5.93;1.08;;;;;;;;;;5061930;28;20051;-73
2023/10/25 05:08:30;;;;;;;3.97;1.10;;;;;;;;;;5062316;28;20048;-73
2023/10/25 05:11:06;;;;;;;5.28;1.10;;;;;;;;;;5062175;28;20056;-74
2023/10/25 05:13:36;;;;;;;;;;;;;;;;;;5062496;28;20487;-73
2023/10/25 05:16:07;;;;;;;5.90;0.95;;;;;;;;;;5061902;28;20402;-73
2023/10/25 05:18:38;;;;;;;11.18;1.23;;;;;;;;;;5061529;28;20432;-74
2023/10/25 05:21:09;;;;;;;7.88;0.95;;;;;;;;;;5061670;28;20521;-74
2023/10/25 05:23:40;;;;;;;9.43;1.52;;;;;;;;;;5062959;28;20049;-73
2023/10/25 05:26:11;;;;;;;6.60;1.00;;;;;;;;;;5062054;28;20407;-73
2023/10/25 05:28:42;;;;;;;6.68;1.00;;;;;;;;;;5062398;28;20048;-72
2023/10/25 05:31:17;;;;;;;4.80;1.13;;;;;;;;;;5061952;28;20744;-73
2023/10/25 05:33:49;;;;;;;5.25;1.08;;;;;;;;;;5062285;28;20052;-73
2023/10/25 05:36:19;;;;;;;8.23;1.30;;;;;;;;;;5061744;28;20049;-73
2023/10/25 05:38:51;;;;;;;3.55;0.80;;;;;;;;;;5064340;28;20367;-73
2023/10/25 05:41:27;;;;;;;6.47;1.30;;;;;;;;;;5064086;28;20071;-72
2023/10/25 05:44:02;;;;;;;4.47;1.10;;;;;;;;;;5066047;28;20044;-73
2023/10/25 05:46:33;;;;;;;4.90;0.80;;;;;;;;;;5066145;28;21118;-73
2023/10/25 05:49:05;;;;;;;5.70;1.10;;;;;;;;;;5065486;28;20541;-73
2023/10/25 05:51:37;;;;;;;7.80;1.30;;;;;;;;;;5065656;28;20049;-73
2023/10/25 05:54:08;;;;;;;4.65;1.00;;;;;;;;;;5063615;28;20115;-72
2023/10/25 05:56:38;;;;;;;6.07;0.93;;;;;;;;;;5065556;28;20495;-73
2023/10/25 05:59:10;;;;;;;5.07;1.25;;;;;;;;;;5065212;28;20748;-73
2023/10/25 06:01:55;;;;;;;7.15;1.63;;;;;;;;;;5065583;28;20051;-73
2023/10/25 06:04:30;;;;;;;6.85;1.25;;;;;;;;;;5065590;28;20048;-72
2023/10/25 06:07:00;;;;;;;3.08;0.88;;;;;;;;;;5065642;28;20055;-72
2023/10/25 06:09:32;;;;;;;7.35;1.25;;;;;;;;;;5065423;28;20055;-73
2023/10/25 06:12:04;;;;;;;3.35;1.08;;;;;;;;;;5065265;28;20072;-73
2023/10/25 06:14:35;;;;;;;6.45;1.92;;;;;;;;;;5065167;28;20636;-73
2023/10/25 06:17:05;;;;;;;2.88;1.08;;;;;;;;;;5065061;28;20052;-73
2023/10/25 06:19:36;;;;;;;3.97;1.00;;;;;;;;;;5066133;28;20521;-73
2023/10/25 06:22:07;;;;;;;2.65;0.70;;;;;;;;;;5065195;28;20052;-71
2023/10/25 06:24:38;;;;;;;4.93;0.73;;;;;;;;;;5065386;28;20592;-74
2023/10/25 06:27:08;;;;;;;8.77;1.20;;;;;;;;;;5064709;28;20103;-73
2023/10/25 06:29:40;;;;;;;5.57;1.00;;;;;;;;;;5063484;28;20048;-73
2023/10/25 06:32:11;;;;;;;3.05;0.93;;;;;;;;;;5064537;28;20055;-74
2023/10/25 06:34:42;;;;;;;4.78;1.00;;;;;;;;;;5065236;28;20048;-73
2023/10/25 06:37:13;;;;;;;4.60;0.80;;;;;;;;;;5064737;28;20059;-72
2023/10/25 06:39:45;;;;;;;3.03;1.00;;;;;;;;;;5063662;28;20049;-73
2023/10/25 06:42:16;;;;;;;3.40;0.85;;;;;;;;;;5064336;28;20044;-72
2023/10/25 06:44:47;;;;;;;5.30;0.82;;;;;;;;;;5063885;28;20048;-73
2023/10/25 06:47:17;;;;;;;2.15;0.70;;;;;;;;;;5064983;28;20044;-73
2023/10/25 06:49:49;;;;;;;6.63;1.75;;;;;;;;;;5063530;28;20055;-73
2023/10/25 06:52:21;;;;;;;6.03;1.17;;;;;;;;;;5047553;28;20044;-73
2023/10/25 06:54:53;;;;;;;6.10;1.02;;;;;;;;;;5065324;28;20411;-72
2023/10/25 06:57:24;;;;;;;2.63;0.90;;;;;;;;;;5065079;28;20502;-73
2023/10/25 06:59:55;;;;;;;4.75;0.90;;;;;;;;;;5063872;28;20539;-72
2023/10/25 07:02:53;;;;;;;3.33;1.00;;;;;;;;;;5064097;28;20056;-72
2023/10/25 07:05:24;;;;;;;6.03;1.00;;;;;;;;;;5064701;28;20052;-73
2023/10/25 07:07:54;;;;;;;5.72;0.90;;;;;;;;;;5064968;28;20052;-73
2023/10/25 07:10:26;;;;;;;5.20;0.93;;;;;;;;;;5064392;28;20048;-73
2023/10/25 07:12:59;;;;;;;4.55;0.80;;;;;;;;;;5064208;28;20067;-72
2023/10/25 07:15:31;;;;;;;5.95;1.05;;;;;;;;;;5064412;28;20157;-72
2023/10/25 07:18:01;;;;;;;7.07;1.10;;;;;;;;;;5064597;28;20052;-74
2023/10/25 07:20:32;;;;;;;3.53;0.80;;;;;;;;;;5063863;28;20059;-72
2023/10/25 07:23:04;;;;;;;8.13;1.13;;;;;;;;;;5064405;28;20045;-73
2023/10/25 07:25:38;;;;;;;3.92;1.00;;;;;;;;;;5065023;28;20049;-73
2023/10/25 07:28:09;;;;;;;4.35;1.00;;;;;;;;;;5063823;28;20408;-72
2023/10/25 07:30:39;;;;;;;4.55;1.00;;;;;;;;;;5063725;28;20045;-73
2023/10/25 07:33:10;;;;;;;4.65;0.93;;;;;;;;;;5063792;28;20052;-73
2023/10/25 07:35:42;;;;;;;7.40;1.35;;;;;;;;;;5064353;28;20510;-74
2023/10/25 07:38:12;;;;;;;4.50;0.88;;;;;;;;;;5063303;28;20044;-73
2023/10/25 07:40:43;;;;;;;4.40;1.25;;;;;;;;;;5063708;28;20045;-72
2023/10/25 07:43:13;;;;;;;4.25;1.10;;;;;;;;;;5064104;28;20041;-73
2023/10/25 07:45:44;;;;;;;3.70;0.85;;;;;;;;;;5063489;28;20071;-73
2023/10/25 07:48:16;;;;;;;3.50;1.10;;;;;;;;;;5064107;28;20059;-73
2023/10/25 07:50:47;;;;;;;11.50;1.30;;;;;;;;;;5063197;28;20052;-73
2023/10/25 07:53:17;;;;;;;9.52;1.33;;;;;;;;;;5063340;28;20141;-73
2023/10/25 07:55:48;;;;;;;6.03;1.20;;;;;;;;;;5063612;28;20064;-73
2023/10/25 07:58:22;;;;;;;10.25;1.45;;;;;;;;;;5063016;28;20041;-73
2023/10/25 08:00:57;;;;;;;3.72;1.50;;;;;;;;;;5062457;28;20079;-73
2023/10/25 08:03:29;;;;;;;6.40;1.27;;;;;;;;;;5062832;28;20048;-73
2023/10/25 08:05:59;;;;;;;6.68;1.10;;;;;;;;;;5063085;28;20048;-72
2023/10/25 08:08:30;;;;;;;5.80;1.70;;;;;;;;;;5063064;28;20049;-73
2023/10/25 08:11:02;;;;;;;5.18;1.23;;;;;;;;;;5063237;28;20072;-73
2023/10/25 08:13:35;;;;;;;6.13;1.20;;;;;;;;;;5061485;28;20491;-72
2023/10/25 08:16:06;;;;;;;5.05;1.00;;;;;;;;;;5064379;28;20411;-73
2023/10/25 08:18:37;;;;;;;6.85;1.10;;;;;;;;;;5062984;28;20048;-73
2023/10/25 08:21:14;;;;;;;6.00;1.17;;;;;;;;;;5062126;28;20055;-74
2023/10/25 08:23:51;;;;;;;4.20;0.90;;;;;;;;;;5062361;28;20048;-73
2023/10/25 08:26:25;;;;;;;7.35;1.15;;;;;;;;;;5062076;28;20044;-73
2023/10/25 08:28:56;;;;;;;6.25;1.10;;;;;;;;;;5062856;28;20418;-72
2023/10/25 08:31:27;;;;;;;13.07;1.42;;;;;;;;;;5060773;28;20052;-73
2023/10/25 08:33:59;;;;;;;2.25;0.80;;;;;;;;;;5062279;28;20052;-73
2023/10/25 08:36:31;;;;;;;4.47;1.02;;;;;;;;;;5062096;28;20052;-73
2023/10/25 08:39:02;;;;;;;3.72;1.02;;;;;;;;;;5062271;28;20059;-73
2023/10/25 08:41:35;;;;;;;3.15;1.05;;;;;;;;;;5061194;28;20049;-73
2023/10/25 08:44:08;;;;;;;4.43;1.10;;;;;;;;;;5062692;28;20048;-73
2023/10/25 08:46:40;;;;;;;4.63;1.00;;;;;;;;;;5062499;28;20052;-73
2023/10/25 08:49:11;;;;;;;8.13;1.10;;;;;;;;;;5062704;28;20537;-73
2023/10/25 08:51:45;;;;;;;8.23;1.42;;;;;;;;;;5061772;28;20045;-74
2023/10/25 08:54:20;;;;;;;6.03;1.17;;;;;;;;;;5062000;28;20569;-73
2023/10/25 08:56:51;;;;;;;10.05;1.40;;;;;;;;;;5062536;28;20048;-73
2023/10/25 08:59:22;;;;;;;4.93;1.15;;;;;;;;;;5061979;28;20052;-73
2023/10/25 09:01:52;;;;;;;11.85;1.50;;;;;;;;;;5062132;28;20052;-74
2023/10/25 09:04:23;;;;;;;5.47;1.10;;;;;;;;;;5061340;28;20063;-72
2023/10/25 09:06:54;;;;;;;6.00;1.35;;;;;;;;;;5060260;28;20063;-73
2023/10/25 09:09:39;;;;;;;5.65;1.25;;;;;;;;;;5061568;28;20052;-72
2023/10/25 09:12:20;;;;;;;3.92;1.33;;;;;;;;;;5062067;28;20090;-72
2023/10/25 09:14:53;;;;;;;7.75;0.82;;;;;;;;;;5060480;28;20383;-73
2023/10/25 09:17:25;;;;;;;7.03;0.95;;;;;;;;;;5061898;28;20052;-73
2023/10/25 09:19:56;;;;;;;5.88;1.30;;;;;;;;;;5059852;28;20056;-73
2023/10/25 09:22:28;;;;;;;6.57;1.10;;;;;;;;;;5061311;28;20075;-73
2023/10/25 09:25:00;;;;;;;2.45;0.90;;;;;;;;;;5062166;28;20071;-73
2023/10/25 09:27:40;;;;;;;8.80;1.20;;;;;;;;;;5059914;28;20061;-73
2023/10/25 09:30:16;;;;;;;3.13;0.85;;;;;;;;;;5061895;28;21134;-73
2023/10/25 09:32:52;;;;;;;4.97;0.82;;;;;;;;;;5059648;28;20557;-73
2023/10/25 09:35:23;;;;;;;6.60;1.13;;;;;;;;;;5061546;28;20048;-73
2023/10/25 09:37:53;;;;;;;8.20;1.10;;;;;;;;;;5061789;28;20036;-73
2023/10/25 09:40:25;;;;;;;5.95;1.35;;;;;;;;;;5061504;28;20048;-74
2023/10/25 09:42:59;;;;;;;6.95;1.42;;;;;;;;;;5061348;28;20544;-73
2023/10/25 09:45:31;;;;;;;5.70;0.98;;;;;;;;;;5061882;28;20040;-73
2023/10/25 09:48:07;;;;;;;4.60;1.27;;;;;;;;;;5061714;28;20048;-73
2023/10/25 09:50:42;;;;;;;5.90;1.45;;;;;;;;;;5059787;28;20049;-74
2023/10/25 09:53:28;;;;;;;9.40;1.33;;;;;;;;;;5062379;28;20059;-73
2023/10/25 09:56:04;;;;;;;4.35;1.13;;;;;;;;;;5061292;28;20049;-72
2023/10/25 09:58:36;;;;;;;3.47;1.13;;;;;;;;;;5061046;28;20056;-73
2023/10/25 10:01:08;;;;;;;8.70;1.48;;;;;;;;;;5062040;28;20052;-73
2023/10/25 10:04:06;;;;;;;5.18;1.80;;;;;;;;;;5061422;28;20419;-75
2023/10/25 10:06:45;;;;;;;9.93;2.05;;;;;;;;;;5039391;28;20071;-74
2023/10/25 10:09:38;;;;;;;9.25;1.30;;;;;;;;;;5061479;28;20064;-74
2023/10/25 10:12:12;;;;;;;8.75;1.40;;;;;;;;;;5061672;28;20407;-73
2023/10/25 10:14:45;;;;;;;7.10;1.30;;;;;;;;;;5061277;28;20051;-73
2023/10/25 10:17:17;;;;;;;7.72;1.48;;;;;;;;;;5061348;28;20067;-73
2023/10/25 10:19:50;;;;;;;6.30;1.42;;;;;;;;;;5060863;28;20056;-76
2023/10/25 10:22:21;;;;;;;9.90;1.92;;;;;;;;;;5061241;28;20048;-73
2023/10/25 10:25:10;;;;;;;4.85;1.00;;;;;;;;;;5062537;28;20429;-73
2023/10/25 10:27:41;;;;;;;2.97;1.30;;;;;;;;;;5064789;28;20041;-74
2023/10/25 10:30:29;;;;;;;9.43;1.50;;;;;;;;;;5067701;28;20040;-73
2023/10/25 10:33:04;;;;;;;4.50;1.33;;;;;;;;;;5084669;28;20047;-74
2023/10/25 10:35:35;;;;;;;7.28;1.70;;;;;;;;;;5085254;28;20044;-73
2023/10/25 10:38:06;;;;;;;8.93;1.42;;;;;;;;;;5085683;28;20052;-79
2023/10/25 10:40:38;;;;;;;5.53;1.15;;;;;;;;;;5086567;28;20047;-74
2023/10/25 10:43:10;;;;;;;4.78;1.00;;;;;;;;;;5083609;28;20617;-73
2023/10/25 10:45:44;;;;;;;5.40;1.10;;;;;;;;;;5084587;28;20798;-73
2023/10/25 10:48:21;;;;;;;5.63;1.20;;;;;;;;;;5083204;28;20506;-73
2023/10/25 10:50:52;;;;;;;5.53;1.27;;;;;;;;;;5084591;28;20062;-74
2023/10/25 10:53:22;;;;;;;8.40;1.92;;;;;;;;;;5084779;28;20514;-75
2023/10/25 10:55:53;;;;;;;8.30;1.40;;;;;;;;;;5083059;28;20422;-73
2023/10/25 10:58:26;;;;;;;9.30;1.63;;;;;;;;;;5084794;28;20418;-72
2023/10/25 11:00:58;;;;;;;5.07;1.08;;;;;;;;;;5084737;28;20043;-76
2023/10/25 11:03:30;;;;;;;5.50;1.20;;;;;;;;;;5084713;28;20052;-72
2023/10/25 11:06:03;;;;;;;10.32;1.60;;;;;;;;;;5084214;28;20040;-74
2023/10/25 11:08:35;;;;;;;9.48;1.40;;;;;;;;;;5083102;28;20052;-74
2023/10/25 11:11:06;;;;;;;8.25;1.20;;;;;;;;;;5084537;28;20067;-73
2023/10/25 11:13:37;;;;;;;5.05;1.15;;;;;;;;;;5084123;28;20056;-74
2023/10/25 11:16:10;;;;;;;3.53;0.70;;;;;;;;;;5084248;28;20044;-73
2023/10/25 11:18:41;;;;;;;3.65;0.82;;;;;;;;;;5084042;28;20056;-73
2023/10/25 11:21:14;;;;;;;3.53;1.00;;;;;;;;;;5081875;28;20502;-75
2023/10/25 11:23:45;;;;;;;5.35;1.48;;;;;;;;;;5083940;28;20055;-74
2023/10/25 11:26:16;;;;;;;15.40;8.05;;;;;;;;;;5084338;28;20051;-72
2023/10/25 11:28:47;;;;;;;7.57;1.20;;;;;;;;;;5081714;28;20047;-74
2023/10/25 11:31:18;;;;;;;5.63;1.88;;;;;;;;;;5082796;28;20422;-73
2023/10/25 11:33:49;;;;;;;9.13;1.73;;;;;;;;;;5082519;28;20047;-75
2023/10/25 11:36:20;;;;;;;3.53;1.10;;;;;;;;;;5082247;28;21168;-74
2023/10/25 11:38:51;;;;;;;13.32;1.38;;;;;;;;;;5083463;28;20059;-74
2023/10/25 11:41:22;;;;;;;10.07;1.15;;;;;;;;;;5083499;28;20048;-73
2023/10/25 11:43:53;;;;;;;5.25;0.90;;;;;;;;;;5083588;28;20079;-74
2023/10/25 11:46:33;;;;;;;8.57;1.42;;;;;;;;;;5084108;28;20051;-74
2023/10/25 11:49:06;;;;;;;7.60;1.33;;;;;;;;;;5083899;28;20525;-74
2023/10/25 11:51:37;;;;;;;2.42;0.70;;;;;;;;;;5083614;28;20514;-73
2023/10/25 11:54:08;;;;;;;4.60;0.90;;;;;;;;;;5081971;28;20056;-74
2023/10/25 11:56:48;;;;;;;3.85;0.90;;;;;;;;;;5082668;28;20406;-74
2023/10/25 11:59:18;;;;;;;4.28;0.85;;;;;;;;;;5083404;28;20044;-73
2023/10/25 12:01:49;;;;;;;5.38;1.08;;;;;;;;;;5081115;28;20063;-73
2023/10/25 12:04:20;;;;;;;4.00;1.42;;;;;;;;;;5082961;28;20056;-73
2023/10/25 12:06:51;;;;;;;10.85;2.00;;;;;;;;;;5082743;28;20052;-73
2023/10/25 12:09:22;;;;;;;7.20;1.40;;;;;;;;;;5082992;28;20059;-73
2023/10/25 12:11:52;;;;;;;7.53;1.80;;;;;;;;;;5083115;28;20048;-73
2023/10/25 12:14:22;;;;;;;3.28;1.02;;;;;;;;;;5082928;28;20058;-77
2023/10/25 12:17:01;;;;;;;4.32;1.45;;;;;;;;;;5083207;28;20047;-75
2023/10/25 12:19:35;;;;;;;5.40;1.38;;;;;;;;;;5082883;28;20052;-73
2023/10/25 12:22:08;;;;;;;5.78;1.40;;;;;;;;;;5083626;28;20044;-73
2023/10/25 12:24:39;;;;;;;8.20;1.63;;;;;;;;;;5082432;28;20044;-73
2023/10/25 12:27:12;;;;;;;6.53;2.92;;;;;;;;;;5082627;28;20052;-71
2023/10/25 12:29:44;;;;;;;6.85;1.50;;;;;;;;;;5083312;28;20785;-73
2023/10/25 12:32:18;;;;;;;5.00;1.40;;;;;;;;;;5082518;28;20044;-76
2023/10/25 12:34:50;;;;;;;6.15;1.38;;;;;;;;;;5080674;28;20063;-73
2023/10/25 12:37:21;;;;;;;7.90;1.92;;;;;;;;;;5082667;28;20052;-73
2023/10/25 12:39:52;;;;;;;4.53;1.83;;;;;;;;;;5081307;28;20502;-73
2023/10/25 12:42:22;;;;;;;6.20;1.48;;;;;;;;;;5082015;28;20048;-74
2023/10/25 12:44:53;;;;;;;3.50;1.17;;;;;;;;;;5083019;28;20059;-73
2023/10/25 12:47:28;;;;;;;5.32;1.60;;;;;;;;;;5082043;28;20056;-75
2023/10/25 12:49:59;;;;;;;5.97;1.52;;;;;;;;;;5082089;28;20418;-74
2023/10/25 12:52:30;;;;;;;3.78;1.50;;;;;;;;;;5082118;28;20047;-75
2023/10/25 12:55:01;;;;;;;4.38;1.10;;;;;;;;;;5082164;28;20051;-71
2023/10/25 12:57:32;;;;;;;4.80;1.23;;;;;;;;;;5082580;28;20043;-71
2023/10/25 13:00:10;;;;;;;4.82;1.70;;;;;;;;;;5081881;28;20062;-71
2023/10/25 13:02:40;;;;;;;5.28;1.67;;;;;;;;;;5080898;28;20047;-72
2023/10/25 13:05:10;;;;;;;5.18;1.60;;;;;;;;;;5083014;28;20048;-82
2023/10/25 13:07:43;;;;;;;5.00;1.42;;;;;;;;;;5082338;28;20052;-72
2023/10/25 13:10:15;;;;;;;5.63;2.60;;;;;;;;;;5082089;28;20502;-71
2023/10/25 13:12:46;;;;;;;4.70;1.35;;;;;;;;;;5082547;28;20426;-73
2023/10/25 13:15:16;;;;;;;3.20;1.67;;;;;;;;;;5082607;28;20048;-74
2023/10/25 13:17:47;;;;;;;3.67;1.60;;;;;;;;;;5081733;28;20052;-75
2023/10/25 13:20:18;;;;;;;3.72;1.40;;;;;;;;;;5080347;28;20044;-72
2023/10/25 13:22:50;;;;;;;5.63;1.65;;;;;;;;;;5082108;28;20541;-73
2023/10/25 13:25:24;;;;;;;2.95;1.60;;;;;;;;;;5080728;28;20048;-72
2023/10/25 13:27:54;;;;;;;10.07;1.50;;;;;;;;;;5082307;28;20052;-72
2023/10/25 13:30:26;;;;;;;5.05;1.67;;;;;;;;;;5081541;28;20051;-71
2023/10/25 13:32:57;;;;;;;5.30;1.70;;;;;;;;;;5081600;28;20044;-72
2023/10/25 13:35:28;;;;;;;4.45;1.52;;;;;;;;;;5081841;28;20537;-73
2023/10/25 13:37:58;;;;;;;9.07;1.80;;;;;;;;;;5081851;28;20403;-72
2023/10/25 13:40:30;;;;;;;3.97;2.17;;;;;;;;;;5081826;28;20052;-72
2023/10/25 13:43:01;;;;;;;6.05;1.75;;;;;;;;;;5082225;28;20055;-72
2023/10/25 13:45:31;;;;;;;2.75;1.35;;;;;;;;;;5082585;28;20398;-72
2023/10/25 13:48:04;;;;;;;4.95;1.52;;;;;;;;;;5081590;28;20047;-72
2023/10/25 13:50:35;;;;;;;3.67;1.55;;;;;;;;;;5081724;28;20063;-72
2023/10/25 13:53:06;;;;;;;2.58;1.30;;;;;;;;;;5081528;28;20052;-73
2023/10/25 13:55:38;;;;;;;4.57;1.63;;;;;;;;;;5081418;28;20525;-72
2023/10/25 13:58:13;;;;;;;5.57;1.70;;;;;;;;;;5081344;28;20048;-73
2023/10/25 14:00:50;;;;;;;6.97;1.92;;;;;;;;;;5084742;28;20050;-80
2023/10/25 14:03:21;;;;;;;5.43;2.25;;;;;;;;;;5085051;28;20647;-76
2023/10/25 14:05:51;;;;;;;3.78;1.75;;;;;;;;;;5085274;28;20063;-72
2023/10/25 14:08:21;;;;;;;4.57;2.00;;;;;;;;;;5085677;28;20056;-72
2023/10/25 14:10:52;;;;;;;3.63;1.70;;;;;;;;;;5085389;28;20545;-73
2023/10/25 14:13:23;;;;;;;7.30;2.00;;;;;;;;;;5085451;28;20512;-73
2023/10/25 14:16:12;;;;;;;4.30;1.85;;;;;;;;;;5085697;28;20036;-72
2023/10/25 14:18:42;;;;;;;5.13;1.80;;;;;;;;;;5085100;28;20055;-72
2023/10/25 14:21:13;;;;;;;6.47;1.80;;;;;;;;;;5084291;28;20063;-72
2023/10/25 14:23:48;;;;;;;6.03;1.60;;;;;;;;;;5084728;28;20044;-74
2023/10/25 14:26:19;;;;;;;3.47;2.00;;;;;;;;;;5084892;28;20052;-72
2023/10/25 14:28:49;;;;;;;6.78;1.85;;;;;;;;;;5085380;28;20052;-71
2023/10/25 14:31:56;;;;;;;5.32;2.08;;;;;;;;;;5088398;28;20422;-72
2023/10/25 14:34:29;;;;;;;5.55;2.28;;;;;;;;;;5084933;28;20063;-73
2023/10/25 14:37:00;;;;;;;4.72;1.88;;;;;;;;;;5084473;28;20040;-73
2023/10/25 14:39:30;;;;;;;6.47;2.33;;;;;;;;;;5084705;28;20048;-74
2023/10/25 14:42:01;;;;;;;5.80;1.77;;;;;;;;;;5085852;28;20055;-72
2023/10/25 14:44:33;;;;;;;3.67;1.90;;;;;;;;;;5084885;28;20047;-71
2023/10/25 14:47:07;;;;;;;3.78;2.15;;;;;;;;;;5083724;28;20051;-72
2023/10/25 14:49:38;;;;;;;4.43;2.30;;;;;;;;;;5084559;28;20620;-71
2023/10/25 14:52:08;;;;;;;5.57;1.80;;;;;;;;;;5084748;28;20056;-71
2023/10/25 14:54:39;;;;;;;7.00;2.13;;;;;;;;;;5082862;28;20059;-72
2023/10/25 14:57:11;;;;;;;5.78;1.88;;;;;;;;;;5084375;28;20055;-72
2023/10/25 14:59:43;;;;;;;4.65;1.70;;;;;;;;;;5084281;28;20043;-72
2023/10/25 15:02:15;;;;;;;6.75;1.60;;;;;;;;;;5084441;28;20040;-72
2023/10/25 15:04:45;;;;;;;4.40;1.73;;;;;;;;;;5083807;28;20052;-72
2023/10/25 15:07:16;;;;;;;4.75;1.77;;;;;;;;;;5083906;28;20044;-73
2023/10/25 15:09:47;;;;;;;6.57;1.65;;;;;;;;;;5083592;28;20047;-77
2023/10/25 15:12:19;;;;;;;7.10;1.88;;;;;;;;;;5081927;28;20052;-72